createdAt,value
2023-02-27T00:01:36.254Z,66.20
2023-02-27T00:04:39.150Z,65.58
2023-02-27T00:07:42.571Z,66.42
2023-02-27T00:10:45.605Z,64.15
2023-02-27T00:13:48.540Z,65.19
2023-02-27T00:16:51.819Z,65.96
2023-02-27T00:19:55.142Z,64.79
2023-02-27T00:22:58.012Z,64.78
2023-02-27T00:26:01.215Z,64.60
2023-02-27T00:29:04.665Z,65.04
2023-02-27T00:32:07.516Z,62.93
2023-02-27T00:35:11.737Z,62.56
2023-02-27T00:38:14.504Z,63.99
2023-02-27T00:41:17.066Z,63.78
2023-02-27T00:44:19.719Z,64.09
2023-02-27T00:47:22.271Z,64.78
2023-02-27T00:50:25.070Z,65.50
2023-02-27T00:53:28.036Z,65.21
2023-02-27T00:56:31.077Z,66.46
2023-02-27T00:59:33.698Z,65.61
2023-02-27T01:02:36.614Z,67.13
2023-02-27T01:05:39.831Z,66.75
2023-02-27T01:08:42.502Z,65.47
2023-02-27T01:11:45.548Z,67.29
2023-02-27T01:14:48.223Z,65.71
2023-02-27T01:17:53.998Z,66.22
2023-02-27T01:20:56.877Z,67.36
2023-02-27T01:23:59.666Z,68.64
2023-02-27T01:27:02.391Z,67.67
2023-02-27T01:30:07.321Z,68.30
2023-02-27T01:33:10.322Z,69.42
2023-02-27T01:36:16.014Z,69.84
2023-02-27T01:39:18.679Z,69.39
2023-02-27T01:42:24.945Z,68.93
2023-02-27T01:45:29.304Z,70.34
2023-02-27T01:48:36.932Z,68.60
2023-02-27T01:51:45.762Z,69.20
2023-02-27T01:54:48.460Z,69.33
2023-02-27T01:57:51.703Z,70.31
2023-02-27T02:00:57.816Z,70.56
2023-02-27T02:04:09.032Z,69.71
2023-02-27T02:07:16.996Z,70.37
2023-02-27T02:10:21.044Z,70.80
2023-02-27T02:13:24.320Z,69.87
2023-02-27T02:16:37.496Z,71.60
2023-02-27T02:19:40.798Z,70.62
2023-02-27T02:23:21.349Z,70.14
2023-02-27T02:26:51.507Z,70.64
2023-02-27T02:30:11.743Z,70.33
2023-02-27T02:33:41.262Z,69.94
2023-02-27T02:37:02.981Z,69.55
2023-02-27T02:40:08.698Z,70.17
2023-02-27T02:43:40.609Z,69.51
2023-02-27T02:46:48.250Z,69.59
2023-02-27T02:49:56.920Z,68.89
2023-02-27T02:53:22.335Z,68.48
2023-02-27T02:56:27.574Z,69.16
2023-02-27T02:59:37.408Z,69.23
2023-02-27T03:02:45.820Z,69.34
2023-02-27T03:05:53.365Z,70.08
2023-02-27T03:09:08.491Z,69.90
2023-02-27T03:12:14.961Z,69.63
2023-02-27T03:15:21.195Z,68.98
2023-02-27T03:18:28.870Z,68.90
2023-02-27T03:21:39.575Z,69.30
2023-02-27T03:24:45.806Z,69.82
2023-02-27T03:28:01.643Z,69.16
2023-02-27T03:31:10.321Z,69.20
2023-02-27T03:34:16.274Z,70.13
2023-02-27T03:37:37.681Z,69.85
2023-02-27T03:40:50.294Z,68.28
2023-02-27T03:44:26.144Z,67.70
2023-02-27T03:47:29.982Z,67.34
2023-02-27T03:50:34.464Z,66.66
2023-02-27T03:53:59.916Z,66.29
2023-02-27T03:57:07.811Z,65.67
2023-02-27T04:00:14.901Z,65.51
2023-02-27T04:03:18.317Z,65.39
2023-02-27T04:06:39.507Z,64.95
2023-02-27T04:09:58.987Z,65.62
2023-02-27T04:13:18.492Z,65.69
2023-02-27T04:16:30.380Z,65.03
2023-02-27T04:20:05.453Z,65.54
2023-02-27T04:23:08.054Z,65.73
2023-02-27T04:26:25.995Z,65.71
2023-02-27T04:30:00.047Z,65.91
2023-02-27T04:33:03.047Z,66.81
2023-02-27T04:36:38.601Z,65.68
2023-02-27T04:39:52.156Z,64.78
2023-02-27T04:42:56.164Z,64.87
2023-02-27T04:46:00.612Z,65.36
2023-02-27T04:49:09.330Z,64.63
2023-02-27T04:52:17.902Z,64.86
2023-02-27T04:55:28.197Z,64.53
2023-02-27T04:58:44.581Z,65.10
2023-02-27T05:01:54.573Z,64.56
2023-02-27T05:05:00.988Z,65.10
2023-02-27T05:08:17.032Z,64.84
2023-02-27T05:11:36.642Z,65.07
2023-02-27T05:14:47.685Z,64.38
2023-02-27T05:18:01.064Z,64.38
2023-02-27T05:21:15.540Z,64.60
2023-02-27T05:24:27.034Z,64.83
2023-02-27T05:27:35.380Z,64.43
2023-02-27T05:30:52.903Z,64.50
2023-02-27T05:34:32.267Z,64.22
2023-02-27T05:37:55.441Z,64.29
2023-02-27T05:41:02.487Z,63.27
2023-02-27T05:44:27.890Z,63.70
2023-02-27T05:47:32.333Z,63.86
2023-02-27T05:50:37.827Z,63.26
2023-02-27T05:53:44.554Z,63.19
2023-02-27T05:56:48.044Z,62.55
2023-02-27T05:59:58.716Z,62.59
2023-02-27T06:03:01.698Z,62.55
2023-02-27T06:06:13.185Z,62.07
2023-02-27T06:09:17.116Z,61.82
2023-02-27T06:12:20.186Z,62.18
2023-02-27T06:15:23.547Z,61.43
2023-02-27T06:18:26.864Z,61.76
2023-02-27T06:21:29.944Z,61.27
2023-02-27T06:24:33.100Z,61.31
2023-02-27T06:27:36.247Z,60.82
2023-02-27T06:30:39.345Z,59.95
2023-02-27T06:33:42.332Z,60.49
2023-02-27T06:36:45.307Z,60.13
2023-02-27T06:39:48.543Z,59.44
2023-02-27T06:42:51.893Z,59.42
2023-02-27T06:45:55.257Z,59.47
2023-02-27T06:48:58.361Z,58.61
2023-02-27T06:52:01.743Z,57.52
2023-02-27T06:55:06.334Z,57.51
2023-02-27T06:58:09.916Z,57.93
2023-02-27T07:01:13.824Z,56.75
2023-02-27T07:04:17.368Z,56.68
2023-02-27T07:07:35.073Z,57.74
2023-02-27T07:10:43.130Z,56.83
2023-02-27T07:13:46.402Z,57.12
2023-02-27T07:16:54.217Z,56.65
2023-02-27T07:19:57.632Z,56.12
2023-02-27T07:23:00.419Z,56.09
2023-02-27T07:26:04.502Z,56.11
2023-02-27T07:29:07.556Z,55.84
2023-02-27T07:32:11.749Z,55.01
2023-02-27T07:35:15.103Z,55.08
2023-02-27T07:38:19.543Z,56.08
2023-02-27T07:41:30.723Z,54.71
2023-02-27T07:44:38.349Z,55.38
2023-02-27T07:47:41.961Z,54.62
2023-02-27T07:50:45.621Z,54.42
2023-02-27T07:53:48.503Z,54.42
2023-02-27T07:56:51.367Z,54.41
2023-02-27T07:59:55.486Z,54.25
2023-02-27T08:02:58.832Z,53.96
2023-02-27T08:06:04.745Z,53.15
2023-02-27T08:09:08.154Z,53.58
2023-02-27T08:12:12.381Z,53.73
2023-02-27T08:15:15.934Z,53.78
2023-02-27T08:18:18.784Z,54.01
2023-02-27T08:21:22.957Z,52.98
2023-02-27T08:24:26.549Z,52.97
2023-02-27T08:27:29.369Z,53.37
2023-02-27T08:30:32.474Z,54.34
2023-02-27T08:33:36.351Z,52.75
2023-02-27T08:36:39.940Z,52.70
2023-02-27T08:39:44.059Z,53.51
2023-02-27T08:42:47.127Z,52.04
2023-02-27T08:45:50.942Z,52.65
2023-02-27T08:48:55.204Z,52.87
2023-02-27T08:51:58.680Z,52.35
2023-02-27T08:55:01.517Z,53.48
2023-02-27T08:58:05.174Z,51.61
2023-02-27T09:01:07.900Z,52.49
2023-02-27T09:04:13.037Z,51.55
2023-02-27T09:07:16.836Z,53.27
2023-02-27T09:10:19.887Z,51.71
2023-02-27T09:13:23.122Z,51.07
2023-02-27T09:16:27.909Z,51.82
2023-02-27T09:19:31.703Z,51.00
2023-02-27T09:22:34.359Z,52.50
2023-02-27T09:25:38.348Z,51.01
2023-02-27T09:28:41.428Z,51.49
2023-02-27T09:31:44.735Z,50.98
2023-02-27T09:34:47.921Z,50.24
2023-02-27T09:37:52.026Z,51.34
2023-02-27T09:40:57.130Z,50.51
2023-02-27T09:44:02.564Z,50.22
2023-02-27T09:47:07.106Z,50.80
2023-02-27T09:50:33.856Z,51.43
2023-02-27T09:53:43.141Z,50.70
2023-02-27T09:56:52.215Z,49.20
2023-02-27T10:00:08.015Z,48.32
2023-02-27T10:03:19.946Z,49.56
2023-02-27T10:06:44.245Z,48.40
2023-02-27T10:10:05.886Z,48.67
2023-02-27T10:13:24.569Z,47.91
2023-02-27T10:16:28.265Z,48.81
2023-02-27T10:19:36.306Z,47.19
2023-02-27T10:22:43.984Z,47.54
2023-02-27T10:25:52.537Z,48.34
2023-02-27T10:28:55.837Z,47.19
2023-02-27T10:32:16.197Z,46.35
2023-02-27T10:35:35.800Z,46.35
2023-02-27T10:38:48.501Z,46.19
2023-02-27T10:41:52.288Z,46.52
2023-02-27T10:44:56.294Z,45.81
2023-02-27T10:48:02.177Z,45.75
2023-02-27T10:51:25.530Z,44.74
2023-02-27T10:54:28.614Z,47.43
2023-02-27T10:57:37.745Z,46.14
2023-02-27T11:00:58.739Z,44.48
2023-02-27T11:04:02.146Z,46.67
2023-02-27T11:07:10.736Z,45.78
2023-02-27T11:10:13.454Z,43.33
2023-02-27T11:13:22.053Z,44.52
2023-02-27T11:16:25.071Z,44.91
2023-02-27T11:19:34.271Z,45.07
2023-02-27T11:22:37.207Z,45.14
2023-02-27T11:25:40.600Z,46.72
2023-02-27T11:28:43.639Z,45.10
2023-02-27T11:31:52.596Z,45.95
2023-02-27T11:34:56.007Z,45.11
2023-02-27T11:38:04.525Z,45.03
2023-02-27T11:41:09.102Z,43.46
2023-02-27T11:44:17.838Z,45.67
2023-02-27T11:47:39.636Z,46.04
2023-02-27T11:51:08.097Z,46.52
2023-02-27T11:54:43.221Z,47.39
2023-02-27T11:57:47.774Z,46.33
2023-02-27T12:01:02.588Z,46.02
2023-02-27T12:04:14.297Z,46.19
2023-02-27T12:07:26.954Z,48.84
2023-02-27T12:10:41.161Z,49.46
2023-02-27T12:13:48.501Z,48.91
2023-02-27T12:16:55.093Z,51.83
2023-02-27T12:20:08.356Z,50.48
2023-02-27T12:23:21.825Z,51.70
2023-02-27T12:26:26.504Z,50.65
2023-02-27T12:29:34.264Z,51.05
2023-02-27T12:32:51.857Z,50.85
2023-02-27T12:36:00.803Z,50.26
2023-02-27T12:39:05.272Z,50.89
2023-02-27T12:42:31.467Z,50.54
2023-02-27T12:45:55.572Z,51.14
2023-02-27T12:49:26.733Z,50.14
2023-02-27T12:53:17.536Z,50.04
2023-02-27T12:56:22.731Z,49.95
2023-02-27T12:59:43.081Z,50.09
2023-02-27T13:03:23.735Z,50.13
2023-02-27T13:06:34.390Z,52.08
2023-02-27T13:09:46.025Z,51.03
2023-02-27T13:12:54.033Z,49.59
2023-02-27T13:16:11.959Z,49.74
2023-02-27T13:19:17.858Z,49.64
2023-02-27T13:22:41.124Z,49.21
2023-02-27T13:25:48.647Z,50.19
2023-02-27T13:28:52.123Z,49.37
2023-02-27T13:32:02.418Z,49.01
2023-02-27T13:35:16.123Z,48.39
2023-02-27T13:38:44.724Z,48.84
2023-02-27T13:41:47.615Z,48.91
2023-02-27T13:44:51.096Z,49.11
2023-02-27T13:47:55.530Z,48.52
2023-02-27T13:51:00.863Z,48.34
2023-02-27T13:54:19.711Z,49.41
2023-02-27T13:57:28.272Z,50.21
2023-02-27T14:00:35.622Z,49.35
2023-02-27T14:03:39.024Z,48.05
2023-02-27T14:06:46.211Z,51.36
2023-02-27T14:09:54.165Z,50.88
2023-02-27T14:12:59.466Z,51.05
2023-02-27T14:16:02.715Z,49.88
2023-02-27T14:19:18.414Z,50.01
2023-02-27T14:22:40.227Z,51.80
2023-02-27T14:25:53.962Z,51.07
2023-02-27T14:28:58.942Z,51.21
2023-02-27T14:32:08.813Z,51.33
2023-02-27T14:35:15.695Z,51.80
2023-02-27T14:38:20.889Z,51.55
2023-02-27T14:41:36.285Z,50.90
2023-02-27T14:44:44.702Z,52.09
2023-02-27T14:47:47.583Z,51.54
2023-02-27T14:50:54.065Z,51.94
2023-02-27T14:54:08.318Z,51.65
2023-02-27T14:57:18.847Z,51.80
2023-02-27T15:00:32.639Z,51.89
2023-02-27T15:03:49.628Z,51.11
2023-02-27T15:06:54.816Z,51.04
2023-02-27T15:10:01.617Z,50.94
2023-02-27T15:13:06.753Z,50.76
2023-02-27T15:16:32.254Z,50.62
2023-02-27T15:19:35.664Z,50.01
2023-02-27T15:22:40.095Z,50.17
2023-02-27T15:25:43.546Z,50.58
2023-02-27T15:28:48.889Z,51.18
2023-02-27T15:31:52.466Z,49.89
2023-02-27T15:34:57.832Z,50.67
2023-02-27T15:38:03.050Z,49.95
2023-02-27T15:41:06.707Z,50.72
2023-02-27T15:44:13.586Z,50.63
2023-02-27T15:47:22.181Z,51.33
2023-02-27T15:50:26.885Z,50.62
2023-02-27T15:53:31.114Z,51.12
2023-02-27T15:56:37.346Z,50.94
2023-02-27T15:59:41.758Z,50.64
2023-02-27T16:02:54.358Z,51.19
2023-02-27T16:05:58.290Z,51.77
2023-02-27T16:09:05.312Z,51.44
2023-02-27T16:12:23.041Z,51.34
2023-02-27T16:15:31.883Z,52.23
2023-02-27T16:18:39.513Z,52.37
2023-02-27T16:22:03.697Z,51.67
2023-02-27T16:25:11.382Z,51.39
2023-02-27T16:28:14.800Z,51.51
2023-02-27T16:31:38.800Z,52.28
2023-02-27T16:34:46.704Z,52.51
2023-02-27T16:37:51.556Z,56.62
2023-02-27T16:40:54.649Z,54.41
2023-02-27T16:43:58.284Z,53.61
2023-02-27T16:47:02.509Z,55.68
2023-02-27T16:50:19.207Z,52.66
2023-02-27T16:53:22.219Z,52.64
2023-02-27T16:56:37.574Z,55.63
2023-02-27T16:59:42.020Z,56.98
2023-02-27T17:02:44.774Z,57.31
2023-02-27T17:05:49.761Z,57.02
2023-02-27T17:08:52.951Z,57.85
2023-02-27T17:11:57.239Z,57.62
2023-02-27T17:15:00.319Z,57.44
2023-02-27T17:18:03.736Z,57.97
2023-02-27T17:21:07.318Z,57.71
2023-02-27T17:24:10.473Z,57.49
2023-02-27T17:27:13.749Z,59.15
2023-02-27T17:30:19.019Z,58.09
2023-02-27T17:33:25.772Z,58.88
2023-02-27T17:36:30.433Z,59.86
2023-02-27T17:39:34.604Z,59.47
2023-02-27T17:42:39.671Z,57.57
2023-02-27T17:45:42.791Z,58.72
2023-02-27T17:48:45.897Z,59.05
2023-02-27T17:51:49.246Z,60.18
2023-02-27T17:54:52.390Z,59.24
2023-02-27T17:57:55.691Z,58.74
2023-02-27T18:01:11.814Z,58.34
2023-02-27T18:04:16.600Z,58.40
2023-02-27T18:07:19.471Z,57.53
2023-02-27T18:10:22.425Z,58.74
2023-02-27T18:13:27.628Z,59.20
2023-02-27T18:16:31.022Z,60.25
2023-02-27T18:19:34.070Z,60.33
2023-02-27T18:22:36.845Z,60.28
2023-02-27T18:25:40.121Z,60.25
2023-02-27T18:28:42.902Z,60.42
2023-02-27T18:31:50.439Z,59.36
2023-02-27T18:34:54.395Z,59.26
2023-02-27T18:37:57.511Z,60.21
2023-02-27T18:41:01.978Z,60.09
2023-02-27T18:44:05.891Z,59.71
2023-02-27T18:47:10.138Z,59.54
2023-02-27T18:50:13.526Z,60.52
2023-02-27T18:53:17.138Z,60.63
2023-02-27T18:56:23.515Z,61.03
2023-02-27T18:59:26.980Z,60.96
2023-02-27T19:02:30.445Z,61.47
2023-02-27T19:05:33.431Z,61.31
2023-02-27T19:08:36.301Z,62.03
2023-02-27T19:11:39.420Z,64.14
2023-02-27T19:14:42.133Z,64.08
2023-02-27T19:17:44.792Z,62.83
2023-02-27T19:20:48.061Z,63.01
2023-02-27T19:23:51.102Z,64.25
2023-02-27T19:26:53.876Z,64.40
2023-02-27T19:29:57.216Z,62.41
2023-02-27T19:33:00.294Z,63.38
2023-02-27T19:36:13.312Z,63.46
2023-02-27T19:39:16.411Z,64.23
2023-02-27T19:42:20.416Z,64.51
2023-02-27T19:45:23.992Z,63.20
2023-02-27T19:48:27.273Z,62.01
2023-02-27T19:51:30.335Z,62.24
2023-02-27T19:54:33.435Z,62.79
2023-02-27T19:57:37.445Z,64.04
2023-02-27T20:00:41.026Z,63.66
2023-02-27T20:03:44.084Z,63.92
2023-02-27T20:06:49.678Z,63.14
2023-02-27T20:09:52.793Z,63.65
2023-02-27T20:12:55.471Z,63.54
2023-02-27T20:16:03.763Z,64.57
2023-02-27T20:19:10.755Z,63.91
2023-02-27T20:22:17.421Z,64.57
2023-02-27T20:25:20.697Z,65.21
2023-02-27T20:28:23.922Z,64.89
2023-02-27T20:31:29.535Z,65.59
2023-02-27T20:34:33.035Z,64.56
2023-02-27T20:37:36.164Z,65.73
2023-02-27T20:40:39.233Z,65.66
2023-02-27T20:43:45.239Z,65.38
2023-02-27T20:46:49.554Z,66.53
2023-02-27T20:49:52.512Z,68.06
2023-02-27T20:52:55.540Z,66.66
2023-02-27T20:55:58.460Z,65.14
2023-02-27T20:59:04.070Z,64.74
2023-02-27T21:02:08.947Z,65.01
2023-02-27T21:05:11.738Z,64.99
2023-02-27T21:08:14.957Z,64.86
2023-02-27T21:11:21.030Z,64.86
2023-02-27T21:14:24.081Z,64.83
2023-02-27T21:17:26.898Z,65.24
2023-02-27T21:20:29.795Z,65.47
2023-02-27T21:23:32.793Z,65.87
2023-02-27T21:26:40.577Z,66.19
2023-02-27T21:29:43.286Z,66.49
2023-02-27T21:32:45.904Z,67.43
2023-02-27T21:35:49.023Z,66.42
2023-02-27T21:38:58.502Z,66.67
2023-02-27T21:42:01.439Z,66.30
2023-02-27T21:45:04.653Z,67.38
2023-02-27T21:48:08.470Z,68.38
2023-02-27T21:51:11.927Z,69.40
2023-02-27T21:54:15.944Z,69.49
2023-02-27T21:57:21.452Z,68.09
2023-02-27T22:00:26.992Z,67.61
2023-02-27T22:03:34.642Z,68.34
2023-02-27T22:06:37.395Z,68.17
2023-02-27T22:09:40.140Z,67.30
2023-02-27T22:12:42.950Z,69.65
2023-02-27T22:15:45.548Z,70.38
2023-02-27T22:18:49.175Z,71.33
2023-02-27T22:21:51.817Z,71.02
2023-02-27T22:24:54.748Z,70.47
2023-02-27T22:27:57.639Z,70.01
2023-02-27T22:31:20.950Z,70.21
2023-02-27T22:34:23.723Z,69.85
2023-02-27T22:37:26.528Z,70.69
2023-02-27T22:40:29.869Z,70.14
2023-02-27T22:43:35.084Z,70.30
2023-02-27T22:46:43.422Z,71.46
2023-02-27T22:49:46.277Z,71.46
2023-02-27T22:52:48.873Z,71.41
2023-02-27T22:55:55.878Z,71.71
2023-02-27T22:58:58.929Z,71.54
2023-02-27T23:02:01.699Z,70.28
2023-02-27T23:05:04.685Z,69.08
2023-02-27T23:08:07.491Z,69.85
2023-02-27T23:11:11.293Z,70.58
2023-02-27T23:14:14.768Z,70.33
2023-02-27T23:17:17.310Z,70.04
2023-02-27T23:20:20.135Z,70.61
2023-02-27T23:23:23.122Z,70.91
2023-02-27T23:26:28.675Z,70.79
2023-02-27T23:29:31.431Z,69.50
2023-02-27T23:32:43.392Z,69.59
2023-02-27T23:35:46.210Z,69.03
2023-02-27T23:38:49.052Z,69.78
2023-02-27T23:41:51.735Z,71.06
2023-02-27T23:45:23.016Z,71.49
2023-02-27T23:48:25.660Z,73.03
2023-02-27T23:51:30.698Z,73.30
2023-02-27T23:54:33.740Z,73.13
2023-02-27T23:57:36.380Z,73.09
